Quito, Ecuador

3:18 PM ECT en Octubre 01, 2014 (GMT -0500)
Yanahuaico | Change Station
CLOSE
Current Station
Estación meteorológica personal
Location: Quito, PICHINCHA
Altura: 2592 m
Estaciones meteorológicas cercanas

Alt 2592 m 0.36 °S, 78.50 °W | Updated 29 seconds ago

Mostly Cloudy
Muy nublado
19.5 ° C
Sensación térmica 19.5 ° C
N
8.0
Viento Variable Viento desde Sur
Gusts 12.9 km/h

Hoy
Alta -- | Baja -- ° C
--% Posibilidad de precipitaciones
Ayer
Alta -- | Baja -- ° C
Precip. -- mm
6:00 AM 6:06 PM
Creciente, 50% visible
Presión 1029 hPa
Visibilidad 10.0 Kilómetros
Nubes Baja 701 m
Muy nublado 1005 m
Punto de rocío 6 ° C
Humedad 41%
Precipitaciones 0 mm
Espesor de la nieve No disponible.
UV 5 de una escala de 12
Polen No disponible.
Calidad del aire No disponible.
Flu Activity No disponible.
METAR SELT 012000Z 17022KT 9999 FEW023 BKN033 18/04 Q1029

More Conditions Fewer Conditions

Presión 1029 hPa
Visibilidad 10.0 Kilómetros
Nubes Baja 701 m
Muy nublado 1005 m
Punto de rocío 6 ° C
Humedad 41%
Precipitaciones 0 mm
Espesor de la nieve No disponible.
UV 5 de una escala de 12
Polen No disponible.
Calidad del aire No disponible.
Flu Activity No disponible.
METAR SELT 012000Z 17022KT 9999 FEW023 BKN033 18/04 Q1029

More Conditions Fewer Conditions

10-Day Weather Forecast

Almanac

Astronomía

Oct. 01, 2014 Salida Puesta
Hora real 6:00 AM ECT 6:06 PM ECT
Crepúsculo civil 5:39 AM ECT 6:27 PM ECT
Crepúsculo náutico 5:15 AM ECT 6:51 PM ECT
Crepúsculo astronómico 4:51 AM ECT 7:15 PM ECT
Luna 12:03 PM ECT Sin puesta de luna
Horas de luz 12h 47m
Horas de luz
12h 06m
Tomorrow will be 0m 1s longer.
Creciente, 50% of the Moon is Illuminated
Hoy
Creciente
Oct 8
Luna llena
Oct 15
Cuarto menguante
Oct 23
Nueva
Oct 30
Cuarto creciente

Extremos de hoy

Máximos del país Bajas del país

Community

WunderPhotos

Upload Photos

1,758,022 ¡fotos cargadas!

WunderBlogs® & News

By Dr. Jeff Masters
Director of Meteorology, Weather Underground
By Kari Strenfel
Meteorologist, Weather Underground
By Christopher C. Burt
Weather Historian, Weather Underground
October 1, 2014
October 1, 2014
October 1, 2014

Nearby

Calidad del aire

Not available.

Grosos de nieve

Not available.

Actividad de terremotos

Ciudad Distance Mag. Tiempo y dato
No hay informes recientes de la actividad sísmica.
Magnitud mínima muestra es 2,5.

Temperaturas de aguas costeras

Lugar Temperatura
Sin partes meteorológicos de las estaciones

Estaciones meteorológicas cercanas